Aviation Digital Data Service (ADDS)

Output produced by METARs form (0207 UTC 03 July 2022)
found at http://www.aviationweather.gov/metar/data/
 
METAR text: KILE 030156Z AUTO 13005KT 10SM CLR 33/19 A2988 RMK AO2 SLP105 T03330189
Conditions at: KILE (KILLEEN MUNI , TX, US) observed 0156 UTC 03 July 2022
Temperature: 33.3°C (92°F)
Dewpoint: 18.9°C (66°F) [RH = 43%]
Pressure (altimeter): 29.88 inches Hg (1011.9 mb)
[Sea-level pressure: 1010.5 mb]
Winds: from the SE (130 degrees) at 6 MPH (5 knots; 2.6 m/s)
Visibility: 10 or more miles (16+ km)
Ceiling: at least 12,000 feet AGL
Clouds: sky clear below 12,000 feet AGL
Weather: automated observation with no human augmentation;
there may or may not be significant weather present at this time